Terminal Aerodrome Forecast
Issued by NWS

Home | Current Version | Previous Version | Graphics & Text | Print | Product List | Glossary On
Versions: 1 2 3 4 5 6 7 8 9 10 11 12 13 14 15 16
000
FTUS43 KTOP 161602 AAB
TAFFOE
TAF AMD
KFOE 161602Z 1616/1712 32011KT P6SM SKC
     FM161730 33011KT P6SM BKN027
     FM162000 31007KT P6SM SCT030=

USA.gov is the U.S. government's official web portal to all federal, state and local government web resources and services.